PWSweather.com
Personal Weather Stations
Station Observations
GRD01
Warsaw, LesznoPL 05-084

WarsawLesznoPL 05-084

Lat: 52.257404, Lon: 20.564847

Elevation: 298

Station Type: WH3080

http://pogoda.kampinos.waw.pl

High Low Average
Temperature 74.3°F23.5°C 50.2°F10.1°C 61.1°F16.2°C
Dew Point 56.5°F13.6°C 47.3°F8.5°C 51.8°F11.0°C
Winds 6.0 mph 9.7 kmh Calm Calm 1.0 mph S1.6 kmh S
Wind Gusts 9.8 mph15.8 kmh -- 4.0 mph6.4 kmh
Humidity 94% 44% 74%
Pressure 30.73 in1040.6 mb 30.62 in1036.9 mb -
Precipitation 0.00 in0.0 mm - -
Hour Temp Dew Point Humidity Winds Wind Gusts Pressure Precip Precip Rate Daily Precip Total
12:00 AM 52.9°F11.6°C 48.2°F9.0°C 84% 0.7 mph SE1.1 kmh SE 2.2 mph3.5 kmh 30.62 in1036.9 mb 0.00 in0.0 mm 0.00 in0.0 mm 0.00 in0.0 mm
12:10 AM 52.9°F11.6°C 48.2°F9.0°C 84% 0.7 mph SE1.1 kmh SE 1.6 mph2.6 kmh 30.18 in1022.0 mb 0.00 in0.0 mm 0.00 in0.0 mm 0.00 in0.0 mm
12:15 AM 52.7°F11.5°C 48.0°F8.9°C 84% 0.7 mph SSE1.1 kmh SSE 2.2 mph3.5 kmh 30.63 in1037.3 mb 0.00 in0.0 mm 0.00 in0.0 mm 0.00 in0.0 mm
12:30 AM 52.5°F11.4°C 48.1°F8.9°C 85% 1.6 mph S2.6 kmh S 3.1 mph5.0 kmh 30.63 in1037.3 mb 0.00 in0.0 mm 0.00 in0.0 mm 0.00 in0.0 mm
12:40 AM 52.5°F11.4°C 48.1°F8.9°C 85% 1.6 mph S2.6 kmh S 2.2 mph3.5 kmh 30.18 in1022.0 mb 0.00 in0.0 mm 0.00 in0.0 mm 0.00 in0.0 mm
12:45 AM 52.9°F11.6°C 49.1°F9.5°C 87% 1.6 mph S2.6 kmh S 3.1 mph5.0 kmh 30.63 in1037.3 mb 0.00 in0.0 mm 0.00 in0.0 mm 0.00 in0.0 mm
01:00 AM 53.2°F11.8°C 49.8°F9.9°C 88% Calm Calm 2.2 mph3.5 kmh 30.64 in1037.6 mb 0.00 in0.0 mm 0.00 in0.0 mm 0.00 in0.0 mm
01:10 AM 53.2°F11.8°C 49.8°F9.9°C 88% Calm Calm 0.7 mph1.1 kmh 30.19 in1022.4 mb 0.00 in0.0 mm 0.00 in0.0 mm 0.00 in0.0 mm
01:15 AM 54.0°F12.2°C 50.5°F10.3°C 88% 2.2 mph S3.5 kmh S 3.8 mph6.1 kmh 30.64 in1037.6 mb 0.00 in0.0 mm 0.00 in0.0 mm 0.00 in0.0 mm
01:30 AM 54.5°F12.5°C 49.8°F9.9°C 84% 0.7 mph S1.1 kmh S 2.2 mph3.5 kmh 30.64 in1037.6 mb 0.00 in0.0 mm 0.00 in0.0 mm 0.00 in0.0 mm
01:40 AM 54.3°F12.4°C 50.5°F10.3°C 87% 0.7 mph S1.1 kmh S 1.6 mph2.6 kmh 30.20 in1022.7 mb 0.00 in0.0 mm 0.00 in0.0 mm 0.00 in0.0 mm
01:45 AM 54.0°F12.2°C 49.9°F9.9°C 86% Calm Calm 2.2 mph3.5 kmh 30.64 in1037.6 mb 0.00 in0.0 mm 0.00 in0.0 mm 0.00 in0.0 mm
02:00 AM 53.6°F12.0°C 49.2°F9.6°C 85% 0.7 mph S1.1 kmh S 1.6 mph2.6 kmh 30.64 in1037.6 mb 0.00 in0.0 mm 0.00 in0.0 mm 0.00 in0.0 mm
02:10 AM 53.4°F11.9°C 49.0°F9.4°C 85% 0.7 mph S1.1 kmh S 1.6 mph2.6 kmh 30.20 in1022.7 mb 0.00 in0.0 mm 0.00 in0.0 mm 0.00 in0.0 mm
02:15 AM 53.1°F11.7°C 48.7°F9.3°C 85% 0.7 mph S1.1 kmh S 2.2 mph3.5 kmh 30.64 in1037.6 mb 0.00 in0.0 mm 0.00 in0.0 mm 0.00 in0.0 mm
02:30 AM 52.3°F11.3°C 48.0°F8.9°C 85% Calm Calm 1.6 mph2.6 kmh 30.64 in1037.6 mb 0.00 in0.0 mm 0.00 in0.0 mm 0.00 in0.0 mm
02:40 AM 52.3°F11.3°C 48.0°F8.9°C 85% Calm Calm 0.7 mph1.1 kmh 30.20 in1022.7 mb 0.00 in0.0 mm 0.00 in0.0 mm 0.00 in0.0 mm
02:45 AM 52.0°F11.1°C 47.6°F8.7°C 85% 0.7 mph SE1.1 kmh SE 2.2 mph3.5 kmh 30.65 in1037.9 mb 0.00 in0.0 mm 0.00 in0.0 mm 0.00 in0.0 mm
03:00 AM 51.8°F11.0°C 47.7°F8.7°C 86% 0.7 mph S1.1 kmh S 3.1 mph5.0 kmh 30.64 in1037.6 mb 0.00 in0.0 mm 0.00 in0.0 mm 0.00 in0.0 mm
03:10 AM 51.8°F11.0°C 47.7°F8.7°C 86% 0.7 mph S1.1 kmh S 1.6 mph2.6 kmh 30.21 in1023.0 mb 0.00 in0.0 mm 0.00 in0.0 mm 0.00 in0.0 mm
03:15 AM 51.4°F10.8°C 47.7°F8.7°C 87% 0.7 mph S1.1 kmh S 1.6 mph2.6 kmh 30.65 in1037.9 mb 0.00 in0.0 mm 0.00 in0.0 mm 0.00 in0.0 mm
03:30 AM 51.1°F10.6°C 47.3°F8.5°C 87% Calm Calm 2.2 mph3.5 kmh 30.65 in1037.9 mb 0.00 in0.0 mm 0.00 in0.0 mm 0.00 in0.0 mm
03:40 AM 51.1°F10.6°C 47.3°F8.5°C 87% Calm Calm -- 30.21 in1023.0 mb 0.00 in0.0 mm 0.00 in0.0 mm 0.00 in0.0 mm
03:45 AM 50.9°F10.5°C 47.5°F8.6°C 88% Calm Calm 2.2 mph3.5 kmh 30.65 in1037.9 mb 0.00 in0.0 mm 0.00 in0.0 mm 0.00 in0.0 mm
04:00 AM 50.7°F10.4°C 47.6°F8.7°C 89% 0.7 mph S1.1 kmh S 2.2 mph3.5 kmh 30.65 in1037.9 mb 0.00 in0.0 mm 0.00 in0.0 mm 0.00 in0.0 mm
04:10 AM 50.7°F10.4°C 47.6°F8.7°C 89% 0.7 mph S1.1 kmh S 1.6 mph2.6 kmh 30.20 in1022.7 mb 0.00 in0.0 mm 0.00 in0.0 mm 0.00 in0.0 mm
04:15 AM 50.7°F10.4°C 47.6°F8.7°C 89% Calm Calm 2.2 mph3.5 kmh 30.66 in1038.3 mb 0.00 in0.0 mm 0.00 in0.0 mm 0.00 in0.0 mm
04:30 AM 50.5°F10.3°C 47.7°F8.7°C 90% Calm Calm 0.7 mph1.1 kmh 30.65 in1037.9 mb 0.00 in0.0 mm 0.00 in0.0 mm 0.00 in0.0 mm
04:40 AM 50.5°F10.3°C 47.7°F8.7°C 90% Calm Calm 0.7 mph1.1 kmh 30.21 in1023.0 mb 0.00 in0.0 mm 0.00 in0.0 mm 0.00 in0.0 mm
04:45 AM 50.4°F10.2°C 47.5°F8.6°C 90% 0.7 mph S1.1 kmh S 2.2 mph3.5 kmh 30.65 in1037.9 mb 0.00 in0.0 mm 0.00 in0.0 mm 0.00 in0.0 mm
05:00 AM 50.4°F10.2°C 47.5°F8.6°C 90% 0.7 mph S1.1 kmh S 3.1 mph5.0 kmh 30.66 in1038.3 mb 0.00 in0.0 mm 0.00 in0.0 mm 0.00 in0.0 mm
05:10 AM 50.4°F10.2°C 47.5°F8.6°C 90% Calm Calm 0.7 mph1.1 kmh 30.22 in1023.4 mb 0.00 in0.0 mm 0.00 in0.0 mm 0.00 in0.0 mm
05:15 AM 50.2°F10.1°C 47.4°F8.6°C 90% 1.6 mph WSW2.6 kmh WSW 3.1 mph5.0 kmh 30.67 in1038.6 mb 0.00 in0.0 mm 0.00 in0.0 mm 0.00 in0.0 mm
05:30 AM 50.2°F10.1°C 47.4°F8.6°C 90% Calm Calm 2.2 mph3.5 kmh 30.68 in1038.9 mb 0.00 in0.0 mm 0.00 in0.0 mm 0.00 in0.0 mm
05:40 AM 50.2°F10.1°C 47.4°F8.6°C 90% 0.7 mph SW1.1 kmh SW 0.7 mph1.1 kmh 30.23 in1023.7 mb 0.00 in0.0 mm 0.00 in0.0 mm 0.00 in0.0 mm
05:45 AM 50.4°F10.2°C 47.8°F8.8°C 91% Calm Calm 0.7 mph1.1 kmh 30.68 in1038.9 mb 0.00 in0.0 mm 0.00 in0.0 mm 0.00 in0.0 mm
06:00 AM 50.5°F10.3°C 48.0°F8.9°C 91% Calm Calm 1.6 mph2.6 kmh 30.68 in1038.9 mb 0.00 in0.0 mm 0.00 in0.0 mm 0.00 in0.0 mm
06:10 AM 50.5°F10.3°C 48.0°F8.9°C 91% Calm Calm -- 30.24 in1024.0 mb 0.00 in0.0 mm 0.00 in0.0 mm 0.00 in0.0 mm
06:15 AM 50.9°F10.5°C 48.7°F9.3°C 92% 0.7 mph S1.1 kmh S 1.6 mph2.6 kmh 30.69 in1039.3 mb 0.00 in0.0 mm 0.00 in0.0 mm 0.00 in0.0 mm
06:30 AM 51.6°F10.9°C 49.4°F9.7°C 92% 0.7 mph S1.1 kmh S 1.6 mph2.6 kmh 30.69 in1039.3 mb 0.00 in0.0 mm 0.00 in0.0 mm 0.00 in0.0 mm
06:40 AM 51.8°F11.0°C 49.5°F9.7°C 92% 0.7 mph S1.1 kmh S 1.6 mph2.6 kmh 30.25 in1024.4 mb 0.00 in0.0 mm 0.00 in0.0 mm 0.00 in0.0 mm
06:45 AM 52.7°F11.5°C 50.7°F10.4°C 93% 0.7 mph S1.1 kmh S 2.2 mph3.5 kmh 30.70 in1039.6 mb 0.00 in0.0 mm 0.00 in0.0 mm 0.00 in0.0 mm
07:00 AM 53.6°F12.0°C 51.9°F11.1°C 94% 1.6 mph S2.6 kmh S 2.2 mph3.5 kmh 30.70 in1039.6 mb 0.00 in0.0 mm 0.00 in0.0 mm 0.00 in0.0 mm
07:10 AM 54.0°F12.2°C 52.0°F11.1°C 93% 0.7 mph SE1.1 kmh SE 1.6 mph2.6 kmh 30.26 in1024.7 mb 0.00 in0.0 mm 0.00 in0.0 mm 0.00 in0.0 mm
07:15 AM 54.9°F12.7°C 52.0°F11.1°C 90% 1.6 mph S2.6 kmh S 3.1 mph5.0 kmh 30.70 in1039.6 mb 0.00 in0.0 mm 0.00 in0.0 mm 0.00 in0.0 mm
07:30 AM 55.9°F13.3°C 52.7°F11.5°C 89% 0.7 mph SSW1.1 kmh SSW 3.1 mph5.0 kmh 30.70 in1039.6 mb 0.00 in0.0 mm 0.00 in0.0 mm 0.00 in0.0 mm
07:40 AM 55.9°F13.3°C 52.7°F11.5°C 89% 0.7 mph S1.1 kmh S 1.6 mph2.6 kmh 30.26 in1024.7 mb 0.00 in0.0 mm 0.00 in0.0 mm 0.00 in0.0 mm
07:45 AM 57.2°F14.0°C 53.4°F11.9°C 87% Calm Calm 3.1 mph5.0 kmh 30.71 in1040.0 mb 0.00 in0.0 mm 0.00 in0.0 mm 0.00 in0.0 mm
08:00 AM 58.5°F14.7°C 53.6°F12.0°C 84% 1.6 mph S2.6 kmh S 2.2 mph3.5 kmh 30.71 in1040.0 mb 0.00 in0.0 mm 0.00 in0.0 mm 0.00 in0.0 mm
08:10 AM 58.5°F14.7°C 53.6°F12.0°C 84% Calm Calm 1.6 mph2.6 kmh 30.26 in1024.7 mb 0.00 in0.0 mm 0.00 in0.0 mm 0.00 in0.0 mm
08:15 AM 59.2°F15.1°C 53.4°F11.9°C 81% Calm Calm 3.1 mph5.0 kmh 30.71 in1040.0 mb 0.00 in0.0 mm 0.00 in0.0 mm 0.00 in0.0 mm
08:30 AM 60.3°F15.7°C 54.1°F12.3°C 80% 0.7 mph S1.1 kmh S 4.5 mph7.2 kmh 30.72 in1040.3 mb 0.00 in0.0 mm 0.00 in0.0 mm 0.00 in0.0 mm
08:40 AM 60.3°F15.7°C 54.1°F12.3°C 80% 3.1 mph SW5.0 kmh SW 3.8 mph6.1 kmh 30.27 in1025.1 mb 0.00 in0.0 mm 0.00 in0.0 mm 0.00 in0.0 mm
08:45 AM 61.3°F16.3°C 54.1°F12.3°C 77% 1.6 mph S2.6 kmh S 5.4 mph8.7 kmh 30.72 in1040.3 mb 0.00 in0.0 mm 0.00 in0.0 mm 0.00 in0.0 mm
09:00 AM 62.2°F16.8°C 53.8°F12.1°C 74% 0.7 mph S1.1 kmh S 5.4 mph8.7 kmh 30.73 in1040.6 mb 0.00 in0.0 mm 0.00 in0.0 mm 0.00 in0.0 mm
09:10 AM 62.4°F16.9°C 54.0°F12.2°C 74% 0.7 mph S1.1 kmh S 2.2 mph3.5 kmh 30.28 in1025.4 mb 0.00 in0.0 mm 0.00 in0.0 mm 0.00 in0.0 mm
09:15 AM 63.7°F17.6°C 53.7°F12.1°C 70% 3.1 mph S5.0 kmh S 5.4 mph8.7 kmh 30.72 in1040.3 mb 0.00 in0.0 mm 0.00 in0.0 mm 0.00 in0.0 mm
09:30 AM 64.9°F18.3°C 53.7°F12.1°C 67% 2.2 mph SSE3.5 kmh SSE 6.0 mph9.7 kmh 30.73 in1040.6 mb 0.00 in0.0 mm 0.00 in0.0 mm 0.00 in0.0 mm
09:40 AM 65.1°F18.4°C 53.9°F12.2°C 67% 3.1 mph S5.0 kmh S 4.5 mph7.2 kmh 30.28 in1025.4 mb 0.00 in0.0 mm 0.00 in0.0 mm 0.00 in0.0 mm
09:45 AM 66.4°F19.1°C 54.3°F12.4°C 65% 1.6 mph SSE2.6 kmh SSE 4.5 mph7.2 kmh 30.72 in1040.3 mb 0.00 in0.0 mm 0.00 in0.0 mm 0.00 in0.0 mm
10:00 AM 67.3°F19.6°C 54.3°F12.4°C 63% 3.8 mph S6.1 kmh S 6.9 mph11.1 kmh 30.73 in1040.6 mb 0.00 in0.0 mm 0.00 in0.0 mm 0.00 in0.0 mm
10:10 AM 67.5°F19.7°C 54.4°F12.4°C 63% 2.2 mph SE3.5 kmh SE 3.8 mph6.1 kmh 30.29 in1025.7 mb 0.00 in0.0 mm 0.00 in0.0 mm 0.00 in0.0 mm
10:15 AM 67.6°F19.8°C 54.2°F12.3°C 62% 3.1 mph SW5.0 kmh SW 6.9 mph11.1 kmh 30.73 in1040.6 mb 0.00 in0.0 mm 0.00 in0.0 mm 0.00 in0.0 mm
10:30 AM 68.5°F20.3°C 54.6°F12.6°C 61% 3.1 mph SSW5.0 kmh SSW 7.6 mph12.2 kmh 30.72 in1040.3 mb 0.00 in0.0 mm 0.00 in0.0 mm 0.00 in0.0 mm
10:40 AM 68.5°F20.3°C 54.6°F12.6°C 61% 3.1 mph SW5.0 kmh SW 4.5 mph7.2 kmh 30.28 in1025.4 mb 0.00 in0.0 mm 0.00 in0.0 mm 0.00 in0.0 mm
10:45 AM 68.9°F20.5°C 54.4°F12.4°C 60% 3.1 mph SW5.0 kmh SW 9.2 mph14.8 kmh 30.72 in1040.3 mb 0.00 in0.0 mm 0.00 in0.0 mm 0.00 in0.0 mm
11:00 AM 68.9°F20.5°C 54.4°F12.4°C 60% 4.5 mph SSW7.2 kmh SSW 6.9 mph11.1 kmh 30.72 in1040.3 mb 0.00 in0.0 mm 0.00 in0.0 mm 0.00 in0.0 mm
11:10 AM 69.1°F20.6°C 54.6°F12.6°C 60% 4.5 mph SW7.2 kmh SW 6.9 mph11.1 kmh 30.27 in1025.1 mb 0.00 in0.0 mm 0.00 in0.0 mm 0.00 in0.0 mm
11:15 AM 69.8°F21.0°C 54.8°F12.7°C 59% 2.2 mph SSE3.5 kmh SSE 6.0 mph9.7 kmh 30.72 in1040.3 mb 0.00 in0.0 mm 0.00 in0.0 mm 0.00 in0.0 mm
11:30 AM 70.2°F21.2°C 53.7°F12.1°C 56% 3.1 mph SSW5.0 kmh SSW 6.9 mph11.1 kmh 30.71 in1040.0 mb 0.00 in0.0 mm 0.00 in0.0 mm 0.00 in0.0 mm
11:40 AM 70.2°F21.2°C 53.7°F12.1°C 56% 3.8 mph S6.1 kmh S 5.4 mph8.7 kmh 30.27 in1025.1 mb 0.00 in0.0 mm 0.00 in0.0 mm 0.00 in0.0 mm
11:45 AM 69.8°F21.0°C 53.9°F12.2°C 57% 0.7 mph SSW1.1 kmh SSW 6.0 mph9.7 kmh 30.71 in1040.0 mb 0.00 in0.0 mm 0.00 in0.0 mm 0.00 in0.0 mm
12:00 PM 70.7°F21.5°C 54.7°F12.6°C 57% 3.1 mph SSE5.0 kmh SSE 7.6 mph12.2 kmh 30.71 in1040.0 mb 0.00 in0.0 mm 0.00 in0.0 mm 0.00 in0.0 mm
12:10 PM 70.7°F21.5°C 54.7°F12.6°C 57% 3.1 mph SE5.0 kmh SE 3.8 mph6.1 kmh 30.26 in1024.7 mb 0.00 in0.0 mm 0.00 in0.0 mm 0.00 in0.0 mm
12:15 PM 70.9°F21.6°C 53.9°F12.2°C 55% 6.0 mph S9.7 kmh S 6.9 mph11.1 kmh 30.70 in1039.6 mb 0.00 in0.0 mm 0.00 in0.0 mm 0.00 in0.0 mm
12:30 PM 70.9°F21.6°C 54.4°F12.4°C 56% 2.2 mph S3.5 kmh S 5.4 mph8.7 kmh 30.71 in1040.0 mb 0.00 in0.0 mm 0.00 in0.0 mm 0.00 in0.0 mm
12:40 PM 71.1°F21.7°C 54.6°F12.6°C 56% 1.6 mph SW2.6 kmh SW 3.1 mph5.0 kmh 30.25 in1024.4 mb 0.00 in0.0 mm 0.00 in0.0 mm 0.00 in0.0 mm
12:45 PM 72.5°F22.5°C 52.8°F11.6°C 50% 2.2 mph SSW3.5 kmh SSW 6.0 mph9.7 kmh 30.69 in1039.3 mb 0.00 in0.0 mm 0.00 in0.0 mm 0.00 in0.0 mm
01:00 PM 72.9°F22.7°C 53.1°F11.7°C 50% 1.6 mph SE2.6 kmh SE 6.9 mph11.1 kmh 30.69 in1039.3 mb 0.00 in0.0 mm 0.00 in0.0 mm 0.00 in0.0 mm
01:10 PM 72.9°F22.7°C 53.1°F11.7°C 50% 1.6 mph SE2.6 kmh SE 6.9 mph11.1 kmh 30.25 in1024.4 mb 0.00 in0.0 mm 0.00 in0.0 mm 0.00 in0.0 mm
01:15 PM 73.0°F22.8°C 53.3°F11.8°C 50% 1.6 mph S2.6 kmh S 4.5 mph7.2 kmh 30.69 in1039.3 mb 0.00 in0.0 mm 0.00 in0.0 mm 0.00 in0.0 mm
01:30 PM 72.3°F22.4°C 54.2°F12.3°C 53% 5.4 mph S8.7 kmh S 5.4 mph8.7 kmh 30.69 in1039.3 mb 0.00 in0.0 mm 0.00 in0.0 mm 0.00 in0.0 mm
01:40 PM 72.3°F22.4°C 54.2°F12.3°C 53% 4.5 mph S7.2 kmh S 5.4 mph8.7 kmh 30.24 in1024.0 mb 0.00 in0.0 mm 0.00 in0.0 mm 0.00 in0.0 mm
01:45 PM 72.9°F22.7°C 51.4°F10.8°C 47% 5.4 mph SSE8.7 kmh SSE 9.8 mph15.8 kmh 30.68 in1038.9 mb 0.00 in0.0 mm 0.00 in0.0 mm 0.00 in0.0 mm
02:00 PM 72.1°F22.3°C 53.0°F11.7°C 51% 2.2 mph SSE3.5 kmh SSE 5.4 mph8.7 kmh 30.68 in1038.9 mb 0.00 in0.0 mm 0.00 in0.0 mm 0.00 in0.0 mm
02:10 PM 72.1°F22.3°C 53.0°F11.7°C 51% 3.8 mph E6.1 kmh E 4.5 mph7.2 kmh 30.23 in1023.7 mb 0.00 in0.0 mm 0.00 in0.0 mm 0.00 in0.0 mm
02:15 PM 73.8°F23.2°C 51.7°F10.9°C 46% 3.1 mph SSE5.0 kmh SSE 8.3 mph13.4 kmh 30.68 in1038.9 mb 0.00 in0.0 mm 0.00 in0.0 mm 0.00 in0.0 mm
02:30 PM 72.9°F22.7°C 51.4°F10.8°C 47% 2.2 mph S3.5 kmh S 7.6 mph12.2 kmh 30.68 in1038.9 mb 0.00 in0.0 mm 0.00 in0.0 mm 0.00 in0.0 mm
02:40 PM 72.9°F22.7°C 51.4°F10.8°C 47% 2.2 mph E3.5 kmh E 4.5 mph7.2 kmh 30.23 in1023.7 mb 0.00 in0.0 mm 0.00 in0.0 mm 0.00 in0.0 mm
02:45 PM 72.9°F22.7°C 52.0°F11.1°C 48% 1.6 mph SW2.6 kmh SW 6.0 mph9.7 kmh 30.67 in1038.6 mb 0.00 in0.0 mm 0.00 in0.0 mm 0.00 in0.0 mm
03:00 PM 74.3°F23.5°C 52.2°F11.2°C 46% 2.2 mph S3.5 kmh S 9.2 mph14.8 kmh 30.67 in1038.6 mb 0.00 in0.0 mm 0.00 in0.0 mm 0.00 in0.0 mm
03:10 PM 74.5°F23.6°C 52.3°F11.3°C 46% 2.2 mph SE3.5 kmh SE 3.8 mph6.1 kmh 30.22 in1023.4 mb 0.00 in0.0 mm 0.00 in0.0 mm 0.00 in0.0 mm
03:15 PM 74.3°F23.5°C 51.0°F10.6°C 44% 3.1 mph SSW5.0 kmh SSW 7.6 mph12.2 kmh 30.67 in1038.6 mb 0.00 in0.0 mm 0.00 in0.0 mm 0.00 in0.0 mm
03:30 PM 72.9°F22.7°C 52.0°F11.1°C 48% 0.7 mph S1.1 kmh S 7.6 mph12.2 kmh 30.67 in1038.6 mb 0.00 in0.0 mm 0.00 in0.0 mm 0.00 in0.0 mm
03:40 PM 72.9°F22.7°C 52.0°F11.1°C 48% 1.6 mph SE2.6 kmh SE 3.1 mph5.0 kmh 30.22 in1023.4 mb 0.00 in0.0 mm 0.00 in0.0 mm 0.00 in0.0 mm
03:45 PM 73.8°F23.2°C 52.3°F11.3°C 47% 3.1 mph S5.0 kmh S 9.8 mph15.8 kmh 30.67 in1038.6 mb 0.00 in0.0 mm 0.00 in0.0 mm 0.00 in0.0 mm
04:00 PM 73.4°F23.0°C 51.9°F11.1°C 47% 2.2 mph S3.5 kmh S 7.6 mph12.2 kmh 30.67 in1038.6 mb 0.00 in0.0 mm 0.00 in0.0 mm 0.00 in0.0 mm
04:10 PM 73.4°F23.0°C 51.9°F11.1°C 47% 1.6 mph S2.6 kmh S 2.2 mph3.5 kmh 30.22 in1023.4 mb 0.00 in0.0 mm 0.00 in0.0 mm 0.00 in0.0 mm
04:15 PM 72.5°F22.5°C 52.2°F11.2°C 49% 1.6 mph SSW2.6 kmh SSW 4.5 mph7.2 kmh 30.67 in1038.6 mb 0.00 in0.0 mm 0.00 in0.0 mm 0.00 in0.0 mm
04:30 PM 71.4°F21.9°C 53.4°F11.9°C 53% 1.6 mph S2.6 kmh S 3.1 mph5.0 kmh 30.67 in1038.6 mb 0.00 in0.0 mm 0.00 in0.0 mm 0.00 in0.0 mm
04:40 PM 71.2°F21.8°C 53.2°F11.8°C 53% 0.7 mph S1.1 kmh S 2.2 mph3.5 kmh 30.23 in1023.7 mb 0.00 in0.0 mm 0.00 in0.0 mm 0.00 in0.0 mm
04:45 PM 71.2°F21.8°C 55.2°F12.9°C 57% 0.7 mph S1.1 kmh S 1.6 mph2.6 kmh 30.67 in1038.6 mb 0.00 in0.0 mm 0.00 in0.0 mm 0.00 in0.0 mm
05:00 PM 70.3°F21.3°C 54.9°F12.7°C 58% Calm Calm 0.7 mph1.1 kmh 30.67 in1038.6 mb 0.00 in0.0 mm 0.00 in0.0 mm 0.00 in0.0 mm
05:10 PM 70.3°F21.3°C 54.9°F12.7°C 58% Calm Calm -- 30.22 in1023.4 mb 0.00 in0.0 mm 0.00 in0.0 mm 0.00 in0.0 mm
05:15 PM 69.4°F20.8°C 54.9°F12.7°C 60% 0.7 mph S1.1 kmh S 1.6 mph2.6 kmh 30.67 in1038.6 mb 0.00 in0.0 mm 0.00 in0.0 mm 0.00 in0.0 mm
05:30 PM 68.5°F20.3°C 55.4°F13.0°C 63% Calm Calm 1.6 mph2.6 kmh 30.67 in1038.6 mb 0.00 in0.0 mm 0.00 in0.0 mm 0.00 in0.0 mm
05:40 PM 68.5°F20.3°C 55.4°F13.0°C 63% Calm Calm -- 30.22 in1023.4 mb 0.00 in0.0 mm 0.00 in0.0 mm 0.00 in0.0 mm
05:45 PM 67.6°F19.8°C 56.3°F13.5°C 67% 0.7 mph S1.1 kmh S 1.6 mph2.6 kmh 30.67 in1038.6 mb 0.00 in0.0 mm 0.00 in0.0 mm 0.00 in0.0 mm
06:00 PM 66.6°F19.2°C 56.5°F13.6°C 70% Calm Calm 0.7 mph1.1 kmh 30.67 in1038.6 mb 0.00 in0.0 mm 0.00 in0.0 mm 0.00 in0.0 mm
06:10 PM 66.6°F19.2°C 56.5°F13.6°C 70% Calm Calm -- 30.24 in1024.0 mb 0.00 in0.0 mm 0.00 in0.0 mm 0.00 in0.0 mm
06:15 PM 65.7°F18.7°C 56.0°F13.3°C 71% Calm Calm 1.6 mph2.6 kmh 30.67 in1038.6 mb 0.00 in0.0 mm 0.00 in0.0 mm 0.00 in0.0 mm
06:30 PM 64.8°F18.2°C 55.1°F12.8°C 71% 0.7 mph S1.1 kmh S 3.1 mph5.0 kmh 30.68 in1038.9 mb 0.00 in0.0 mm 0.00 in0.0 mm 0.00 in0.0 mm
06:40 PM 64.8°F18.2°C 55.1°F12.8°C 71% 0.7 mph S1.1 kmh S 1.6 mph2.6 kmh 30.23 in1023.7 mb 0.00 in0.0 mm 0.00 in0.0 mm 0.00 in0.0 mm
06:45 PM 63.7°F17.6°C 54.5°F12.5°C 72% Calm Calm 1.6 mph2.6 kmh 30.68 in1038.9 mb 0.00 in0.0 mm 0.00 in0.0 mm 0.00 in0.0 mm
07:00 PM 63.0°F17.2°C 54.9°F12.7°C 75% Calm Calm 0.7 mph1.1 kmh 30.68 in1038.9 mb 0.00 in0.0 mm 0.00 in0.0 mm 0.00 in0.0 mm
07:10 PM 63.0°F17.2°C 54.9°F12.7°C 75% Calm Calm -- 30.24 in1024.0 mb 0.00 in0.0 mm 0.00 in0.0 mm 0.00 in0.0 mm
07:15 PM 61.7°F16.5°C 54.8°F12.7°C 78% Calm Calm 1.6 mph2.6 kmh 30.68 in1038.9 mb 0.00 in0.0 mm 0.00 in0.0 mm 0.00 in0.0 mm
07:30 PM 61.2°F16.2°C 54.6°F12.6°C 79% Calm Calm 1.6 mph2.6 kmh 30.68 in1038.9 mb 0.00 in0.0 mm 0.00 in0.0 mm 0.00 in0.0 mm
07:40 PM 61.2°F16.2°C 54.6°F12.6°C 79% Calm Calm -- 30.24 in1024.0 mb 0.00 in0.0 mm 0.00 in0.0 mm 0.00 in0.0 mm
07:45 PM 60.4°F15.8°C 54.2°F12.3°C 80% Calm Calm 1.6 mph2.6 kmh 30.69 in1039.3 mb 0.00 in0.0 mm 0.00 in0.0 mm 0.00 in0.0 mm
08:00 PM 59.9°F15.5°C 53.7°F12.1°C 80% 0.7 mph S1.1 kmh S 2.2 mph3.5 kmh 30.68 in1038.9 mb 0.00 in0.0 mm 0.00 in0.0 mm 0.00 in0.0 mm
08:10 PM 59.9°F15.5°C 53.7°F12.1°C 80% 0.7 mph S1.1 kmh S 1.6 mph2.6 kmh 30.25 in1024.4 mb 0.00 in0.0 mm 0.00 in0.0 mm 0.00 in0.0 mm
08:15 PM 59.4°F15.2°C 53.5°F11.9°C 81% 1.6 mph S2.6 kmh S 3.1 mph5.0 kmh 30.68 in1038.9 mb 0.00 in0.0 mm 0.00 in0.0 mm 0.00 in0.0 mm
08:30 PM 59.4°F15.2°C 53.5°F11.9°C 81% Calm Calm 2.2 mph3.5 kmh 30.69 in1039.3 mb 0.00 in0.0 mm 0.00 in0.0 mm 0.00 in0.0 mm
08:40 PM 59.2°F15.1°C 53.4°F11.9°C 81% 0.7 mph S1.1 kmh S 1.6 mph2.6 kmh 30.25 in1024.4 mb 0.00 in0.0 mm 0.00 in0.0 mm 0.00 in0.0 mm
08:45 PM 58.8°F14.9°C 53.0°F11.7°C 81% Calm Calm 2.2 mph3.5 kmh 30.68 in1038.9 mb 0.00 in0.0 mm 0.00 in0.0 mm 0.00 in0.0 mm
09:00 PM 58.3°F14.6°C 52.5°F11.4°C 81% 1.6 mph S2.6 kmh S 2.2 mph3.5 kmh 30.68 in1038.9 mb 0.00 in0.0 mm 0.00 in0.0 mm 0.00 in0.0 mm
09:10 PM 58.3°F14.6°C 52.5°F11.4°C 81% 1.6 mph S2.6 kmh S 2.2 mph3.5 kmh 30.25 in1024.4 mb 0.00 in0.0 mm 0.00 in0.0 mm 0.00 in0.0 mm
09:15 PM 57.9°F14.4°C 52.1°F11.2°C 81% Calm Calm 1.6 mph2.6 kmh 30.69 in1039.3 mb 0.00 in0.0 mm 0.00 in0.0 mm 0.00 in0.0 mm
09:30 PM 57.4°F14.1°C 51.9°F11.1°C 82% Calm Calm 0.7 mph1.1 kmh 30.69 in1039.3 mb 0.00 in0.0 mm 0.00 in0.0 mm 0.00 in0.0 mm
09:40 PM 57.4°F14.1°C 51.9°F11.1°C 82% 0.7 mph S1.1 kmh S 1.6 mph2.6 kmh 30.24 in1024.0 mb 0.00 in0.0 mm 0.00 in0.0 mm 0.00 in0.0 mm
09:45 PM 56.8°F13.8°C 51.4°F10.8°C 82% Calm Calm 2.2 mph3.5 kmh 30.69 in1039.3 mb 0.00 in0.0 mm 0.00 in0.0 mm 0.00 in0.0 mm
10:00 PM 56.7°F13.7°C 51.6°F10.9°C 83% 0.7 mph S1.1 kmh S 1.6 mph2.6 kmh 30.68 in1038.9 mb 0.00 in0.0 mm 0.00 in0.0 mm 0.00 in0.0 mm
10:10 PM 56.5°F13.6°C 51.4°F10.8°C 83% 0.7 mph S1.1 kmh S 1.6 mph2.6 kmh 30.24 in1024.0 mb 0.00 in0.0 mm 0.00 in0.0 mm 0.00 in0.0 mm
10:15 PM 56.1°F13.4°C 51.0°F10.6°C 83% Calm Calm 0.7 mph1.1 kmh 30.68 in1038.9 mb 0.00 in0.0 mm 0.00 in0.0 mm 0.00 in0.0 mm
10:30 PM 55.9°F13.3°C 50.9°F10.5°C 83% Calm Calm 1.6 mph2.6 kmh 30.69 in1039.3 mb 0.00 in0.0 mm 0.00 in0.0 mm 0.00 in0.0 mm
10:40 PM 55.9°F13.3°C 50.9°F10.5°C 83% Calm Calm -- 30.24 in1024.0 mb 0.00 in0.0 mm 0.00 in0.0 mm 0.00 in0.0 mm
10:45 PM 55.4°F13.0°C 50.6°F10.3°C 84% Calm Calm -- 30.69 in1039.3 mb 0.00 in0.0 mm 0.00 in0.0 mm 0.00 in0.0 mm
11:00 PM 55.0°F12.8°C 50.3°F10.2°C 84% Calm Calm 0.7 mph1.1 kmh 30.69 in1039.3 mb 0.00 in0.0 mm 0.00 in0.0 mm 0.00 in0.0 mm
11:10 PM 55.0°F12.8°C 50.3°F10.2°C 84% Calm Calm -- 30.25 in1024.4 mb 0.00 in0.0 mm 0.00 in0.0 mm 0.00 in0.0 mm
11:15 PM 54.7°F12.6°C 49.9°F9.9°C 84% 0.7 mph S1.1 kmh S 1.6 mph2.6 kmh 30.69 in1039.3 mb 0.00 in0.0 mm 0.00 in0.0 mm 0.00 in0.0 mm
11:30 PM 54.7°F12.6°C 50.3°F10.2°C 85% Calm Calm 1.6 mph2.6 kmh 30.69 in1039.3 mb 0.00 in0.0 mm 0.00 in0.0 mm 0.00 in0.0 mm
11:40 PM 54.7°F12.6°C 50.3°F10.2°C 85% Calm Calm -- 30.25 in1024.4 mb 0.00 in0.0 mm 0.00 in0.0 mm 0.00 in0.0 mm
11:45 PM 54.5°F12.5°C 50.1°F10.1°C 85% 0.7 mph S1.1 kmh S 1.6 mph2.6 kmh 30.68 in1038.9 mb 0.00 in0.0 mm 0.00 in0.0 mm 0.00 in0.0 mm